メインページ
METAR-TAF:

METAR-TAF

空港 :

ケベック・シティー, ケベック州, カナダ

ケベック・ジャン・ルサージ国際空港

緯度: 46-48N, 経度: 071-23W, 海抜: 70m

現時点の気象観測

当レポートは34分前の01:00(UTC)に作成
北西の風 6kt、西/北西からの間で変化する
気温 7°C
湿度 81%
気圧 1015 hPa
視程: 12.9km
高度2500ftの雲はほとんどない
高度4700ftの千切れ雲あり
高度8000ftの曇り
弱いにわか雨

METAR: CYQB 240100Z 31006KT 290V360 8SM -SHRA FEW025 BKN047 OVC080 07/04 A2996 RMK CU2SC5AC1 PRESRR SLP150

時間: 21:34 (01:34 UTC)

予報

当レポートは1時間56分前の23:38(UTC)に作成
予報は24日の 00時(UTC)から 24日の 24時(UTC)まで有効
西の風 10kt
視程: 10km
高度2500ftの雲は散在している
高度7000ftの曇り
24日の 00時(UTC)から 24日の 02時(UTC)まで一時的に
視程: 10km
高度2000ftの千切れ雲あり
高度5000ftの曇り
弱いにわか雨
24日の 00時(UTC)から 24日の 02時(UTC)まで徐々に
北西の風 10kt
24日の 0200時(UTC)から
北西の風 10kt
視程: 10km
高度3000ftの千切れ雲あり
高度12000ftの千切れ雲あり
24日の 03時(UTC)から 24日の 05時(UTC)まで徐々に
高度3000ftの雲はほとんどない
24日の 0700時(UTC)から
北西の風 6kt
視程: 10km
晴天
24日の 14時(UTC)から 24日の 16時(UTC)まで徐々に
西の風 10kt

TAF: CYQB 232338Z 2400/2424 28010KT P6SM SCT025 OVC070 TEMPO 2400/2402 P6SM -SHRA BKN020 OVC050 BECMG 2400/2402 31010KT FM240200 31010KT P6SM BKN030 BKN120 BECMG 2403/2405 FEW030 FM240700 31006KT P6SM SKC BECMG 2414/2416 26010KT RMK NXT FCST BY 240600Z

4,000以上の空港の気象観測と天気予報(METAR報とTAF報)

利用可能な観測所は地図上に黄色い丸と赤い丸で示す。

丸の上にカーソルを重ねると観測所名を参照できる。

次にクリックすると気象観測と天気予報を参照できる。

マップの切り替え:黒色「×」印の緑ボタンをクリックして拡大、「-」印の緑ボタンをクリックして縮小、緑色の三角印をクリックして隣りの地図に切り替え


METAR-TAF: